Terminal Aerodrome Forecast
Issued by NWS North Platte, NE

Home | Current Version | Previous Version | Text Only | Print | Product List | Glossary On
Versions: 1 2 3 4 5 6 7 8 9 10 11 12 13
051
FTUS43 KLBF 040520
TAFLBF
TAF
KLBF 040520Z 0406/0506 27005KT P6SM BKN200
     FM041800 28009KT P6SM FEW250
     FM042200 24007KT P6SM FEW250
     FM050200 18005KT P6SM SCT250
     FM050300 18006KT P6SM SCT200 WS020/22040KT=

USA.gov is the U.S. government's official web portal to all federal, state and local government web resources and services.